DLH407 EYVI-LOWS
Flight info
| Callsign | DLH407 |
|---|---|
| Flight time | N/A |
| Altitude | 37000 |
| Route | UPASI DCT VABER DCT TITUV DCT UVROB DCT BAVOK DCT MIKOV DCT MASUR DCT MATIG |
| Aircraft | B38M/M-SDE1FGHILORVWXY/HB1 |
Departure
| Time | 2026-05-07 17:22 |
|---|---|
| Airport | Vilnius International Airport (EYVI) |
Arrival
| Time | N/A |
|---|---|
| Airport | Salzburg Airport (LOWS) |
| Time | Latitude | Longitude | Altitude | Speed | Heading |
|---|---|---|---|---|---|
| 2026-05-07 17:11 | 54.64221 | 25.28190 | 660 ft | 0 kts | 0° |
| 2026-05-07 17:14 | 54.64213 | 25.28190 | 660 ft | 2 kts | 0° |
| 2026-05-07 17:14 | 54.64196 | 25.28185 | 660 ft | 3 kts | 22° |
| 2026-05-07 17:14 | 54.64180 | 25.28164 | 660 ft | 3 kts | 50° |
| 2026-05-07 17:15 | 54.64171 | 25.28133 | 660 ft | 3 kts | 78° |
| 2026-05-07 17:15 | 54.64170 | 25.28116 | 660 ft | 0 kts | 91° |
| 2026-05-07 17:17 | 54.64170 | 25.28117 | 660 ft | 0 kts | 91° |
| 2026-05-07 17:18 | 54.64170 | 25.28122 | 660 ft | 3 kts | 91° |
| 2026-05-07 17:19 | 54.64153 | 25.28152 | 660 ft | 6 kts | 168° |
| 2026-05-07 17:19 | 54.64084 | 25.28178 | 660 ft | 14 kts | 168° |
| 2026-05-07 17:19 | 54.63963 | 25.28221 | 660 ft | 21 kts | 168° |
| 2026-05-07 17:19 | 54.63793 | 25.28286 | 660 ft | 29 kts | 167° |
| 2026-05-07 17:20 | 54.63629 | 25.28349 | 660 ft | 20 kts | 167° |
| 2026-05-07 17:20 | 54.63480 | 25.28316 | 660 ft | 25 kts | 203° |
| 2026-05-07 17:20 | 54.63294 | 25.28186 | 660 ft | 32 kts | 202° |
| 2026-05-07 17:20 | 54.63064 | 25.28027 | 660 ft | 39 kts | 201° |
| 2026-05-07 17:21 | 54.62794 | 25.27838 | 660 ft | 45 kts | 202° |
| 2026-05-07 17:21 | 54.62588 | 25.27693 | 660 ft | 31 kts | 202° |
| 2026-05-07 17:21 | 54.62467 | 25.27720 | 660 ft | 18 kts | 143° |
| 2026-05-07 17:21 | 54.62416 | 25.27873 | 660 ft | 7 kts | 59° |
| 2026-05-07 17:22 | 54.62431 | 25.27896 | 660 ft | 3 kts | 22° |
| 2026-05-07 17:22 | 54.62597 | 25.28008 | 660 ft | 68 kts | 21° |
| 2026-05-07 17:22 | 54.63347 | 25.28519 | 665 ft | 160 kts | 21° |
| 2026-05-07 17:22 | 54.64436 | 25.29268 | 1654 ft | 170 kts | 22° |
| 2026-05-07 17:23 | 54.65574 | 25.30063 | 2848 ft | 186 kts | 22° |
| 2026-05-07 17:23 | 54.66851 | 25.30955 | 3737 ft | 210 kts | 22° |
| 2026-05-07 17:23 | 54.68277 | 25.31951 | 4667 ft | 231 kts | 22° |
| 2026-05-07 17:23 | 54.69808 | 25.33021 | 5772 ft | 243 kts | 22° |
| 2026-05-07 17:24 | 54.71395 | 25.34132 | 7003 ft | 248 kts | 22° |
| 2026-05-07 17:24 | 54.73011 | 25.35264 | 8224 ft | 253 kts | 22° |
| 2026-05-07 17:24 | 54.74644 | 25.36408 | 9392 ft | 258 kts | 22° |
| 2026-05-07 17:24 | 54.76329 | 25.37565 | 10507 ft | 265 kts | 20° |
| 2026-05-07 17:25 | 54.78219 | 25.37921 | 11292 ft | 283 kts | 356° |
| 2026-05-07 17:25 | 54.80151 | 25.36951 | 12073 ft | 299 kts | 336° |
| 2026-05-07 17:25 | 54.81871 | 25.34782 | 12795 ft | 316 kts | 315° |
| 2026-05-07 17:25 | 54.83106 | 25.31541 | 13466 ft | 332 kts | 294° |
| 2026-05-07 17:26 | 54.83597 | 25.27576 | 14248 ft | 342 kts | 272° |
| 2026-05-07 17:26 | 54.83194 | 25.23500 | 15172 ft | 347 kts | 250° |
| 2026-05-07 17:26 | 54.81929 | 25.19937 | 16057 ft | 352 kts | 229° |
| 2026-05-07 17:26 | 54.79963 | 25.17407 | 16911 ft | 356 kts | 207° |
| 2026-05-07 17:27 | 54.77587 | 25.16154 | 17772 ft | 359 kts | 194° |
| 2026-05-07 17:27 | 54.75194 | 25.14793 | 18560 ft | 365 kts | 199° |
| 2026-05-07 17:27 | 54.72796 | 25.13249 | 19338 ft | 369 kts | 201° |
| 2026-05-07 17:27 | 54.70604 | 25.11023 | 20051 ft | 373 kts | 218° |
| 2026-05-07 17:28 | 54.68664 | 25.08009 | 20811 ft | 377 kts | 223° |